sensor_id;sensor_type;location;lat;lon;timestamp;pressure;altitude;pressure_sealevel;temperature;humidity
15260;BME280;34462;51.368;12.364;2023-03-11T00:00:47;18734.81;;;-141.84;84.09
15260;BME280;34462;51.368;12.364;2023-03-11T00:03:18;18753.09;;;-141.84;84.18
15260;BME280;34462;51.368;12.364;2023-03-11T00:05:51;18718.56;;;-141.84;84.09
15260;BME280;34462;51.368;12.364;2023-03-11T00:08:23;18740.91;;;-141.84;83.89
15260;BME280;34462;51.368;12.364;2023-03-11T00:10:54;18757.16;;;-141.84;84.05
15260;BME280;34462;51.368;12.364;2023-03-11T00:13:25;18708.41;;;-141.84;84.52
15260;BME280;34462;51.368;12.364;2023-03-11T00:15:54;18751.06;;;-141.84;84.14
15260;BME280;34462;51.368;12.364;2023-03-11T00:18:24;18765.28;;;-141.84;84.28
15260;BME280;34462;51.368;12.364;2023-03-11T00:20:58;18749.03;;;-141.84;84.49
15260;BME280;34462;51.368;12.364;2023-03-11T00:23:27;18759.19;;;-141.84;84.46
15260;BME280;34462;51.368;12.364;2023-03-11T00:25:56;18749.03;;;-141.84;84.71
15260;BME280;34462;51.368;12.364;2023-03-11T00:28:25;18716.53;;;-141.84;85.21
15260;BME280;34462;51.368;12.364;2023-03-11T00:30:53;18740.91;;;-141.84;85.13
15260;BME280;34462;51.368;12.364;2023-03-11T00:33:22;18720.59;;;-141.84;85.02
15260;BME280;34462;51.368;12.364;2023-03-11T00:35:50;18740.91;;;-141.84;84.92
15260;BME280;34462;51.368;12.364;2023-03-11T00:38:21;18708.41;;;-141.84;85.08
15260;BME280;34462;51.368;12.364;2023-03-11T00:40:50;18726.69;;;-141.84;85.72
15260;BME280;34462;51.368;12.364;2023-03-11T00:43:18;18747.00;;;-141.84;85.89
15260;BME280;34462;51.368;12.364;2023-03-11T00:45:46;18704.31;;;-141.84;86.20
15260;BME280;34462;51.368;12.364;2023-03-11T00:48:14;18726.69;;;-141.84;86.41
15260;BME280;34462;51.368;12.364;2023-03-11T00:50:43;18736.84;;;-141.84;86.55
15260;BME280;34462;51.368;12.364;2023-03-11T00:53:11;18706.38;;;-141.84;86.75
15260;BME280;34462;51.368;12.364;2023-03-11T00:55:41;18728.72;;;-141.84;86.58
15260;BME280;34462;51.368;12.364;2023-03-11T00:58:10;18720.59;;;-141.84;86.72
15260;BME280;34462;51.368;12.364;2023-03-11T01:00:38;18740.91;;;-141.84;86.94
15260;BME280;34462;51.368;12.364;2023-03-11T01:03:07;18722.63;;;-141.84;86.49
15260;BME280;34462;51.368;12.364;2023-03-11T01:05:35;18677.91;;;-141.84;86.72
15260;BME280;34462;51.368;12.364;2023-03-11T01:08:04;18704.31;;;-141.84;86.75
15260;BME280;34462;51.368;12.364;2023-03-11T01:10:33;18716.53;;;-141.84;86.94
15260;BME280;34462;51.368;12.364;2023-03-11T01:13:03;18702.28;;;-141.84;87.12
15260;BME280;34462;51.368;12.364;2023-03-11T01:15:34;18696.19;;;-141.84;87.72
15260;BME280;34462;51.368;12.364;2023-03-11T01:18:04;18716.53;;;-141.84;87.97
15260;BME280;34462;51.368;12.364;2023-03-11T01:20:33;18692.13;;;-141.84;87.74
15260;BME280;34462;51.368;12.364;2023-03-11T01:23:02;18708.41;;;-141.84;87.56
15260;BME280;34462;51.368;12.364;2023-03-11T01:25:31;18675.88;;;-141.84;87.53
15260;BME280;34462;51.368;12.364;2023-03-11T01:27:59;18690.09;;;-141.84;87.43
15260;BME280;34462;51.368;12.364;2023-03-11T01:30:30;18675.88;;;-141.84;87.35
15260;BME280;34462;51.368;12.364;2023-03-11T01:32:58;18702.28;;;-141.84;87.74
15260;BME280;34462;51.368;12.364;2023-03-11T01:35:28;18669.78;;;-141.84;88.04
15260;BME280;34462;51.368;12.364;2023-03-11T01:37:58;18671.81;;;-141.84;87.97
15260;BME280;34462;51.368;12.364;2023-03-11T01:40:31;18663.69;;;-141.84;87.93
15260;BME280;34462;51.368;12.364;2023-03-11T01:43:02;18669.78;;;-141.84;88.27
15260;BME280;34462;51.368;12.364;2023-03-11T01:45:40;18645.41;;;-141.84;88.31
15260;BME280;34462;51.368;12.364;2023-03-11T01:48:10;18633.22;;;-141.84;88.33
15260;BME280;34462;51.368;12.364;2023-03-11T01:50:42;18659.63;;;-141.84;88.26
15260;BME280;34462;51.368;12.364;2023-03-11T01:53:14;18653.53;;;-141.84;88.11
15260;BME280;34462;51.368;12.364;2023-03-11T01:55:43;18663.69;;;-141.84;88.00
15260;BME280;34462;51.368;12.364;2023-03-11T01:58:21;18669.78;;;-141.84;88.24
15260;BME280;34462;51.368;12.364;2023-03-11T02:00:54;18688.06;;;-141.84;88.16
15260;BME280;34462;51.368;12.364;2023-03-11T02:03:28;18681.97;;;-141.84;88.20
15260;BME280;34462;51.368;12.364;2023-03-11T02:06:01;18663.69;;;-141.84;87.94
15260;BME280;34462;51.368;12.364;2023-03-11T02:08:30;18657.59;;;-141.84;87.97
15260;BME280;34462;51.368;12.364;2023-03-11T02:11:04;18673.84;;;-141.84;87.56
15260;BME280;34462;51.368;12.364;2023-03-11T02:13:33;18659.63;;;-141.84;87.45
15260;BME280;34462;51.368;12.364;2023-03-11T02:16:05;18647.44;;;-141.84;87.58
15260;BME280;34462;51.368;12.364;2023-03-11T02:18:34;18675.88;;;-141.84;87.35
15260;BME280;34462;51.368;12.364;2023-03-11T02:21:19;18667.75;;;-141.84;87.08
15260;BME280;34462;51.368;12.364;2023-03-11T02:23:57;18663.69;;;-141.84;87.46
15260;BME280;34462;51.368;12.364;2023-03-11T02:26:36;18671.81;;;-141.84;87.30
15260;BME280;34462;51.368;12.364;2023-03-11T02:29:10;18720.59;;;-141.84;87.67
15260;BME280;34462;51.368;12.364;2023-03-11T02:31:40;18665.72;;;-141.84;87.70
15260;BME280;34462;51.368;12.364;2023-03-11T02:34:16;18684.00;;;-141.84;87.77
15260;BME280;34462;51.368;12.364;2023-03-11T02:36:47;18665.72;;;-141.84;87.56
15260;BME280;34462;51.368;12.364;2023-03-11T02:39:16;18655.56;;;-141.84;87.44
15260;BME280;34462;51.368;12.364;2023-03-11T02:41:45;18665.72;;;-141.84;87.14
15260;BME280;34462;51.368;12.364;2023-03-11T02:44:15;18659.63;;;-141.84;86.73
15260;BME280;34462;51.368;12.364;2023-03-11T02:46:44;18669.78;;;-141.84;86.84
15260;BME280;34462;51.368;12.364;2023-03-11T02:49:14;18688.06;;;-141.84;86.69
15260;BME280;34462;51.368;12.364;2023-03-11T02:51:43;18647.44;;;-141.84;86.72
15260;BME280;34462;51.368;12.364;2023-03-11T02:54:11;18671.81;;;-141.84;86.38
15260;BME280;34462;51.368;12.364;2023-03-11T02:56:39;18706.38;;;-141.84;86.02
15260;BME280;34462;51.368;12.364;2023-03-11T02:59:07;18665.72;;;-141.84;86.18
15260;BME280;34462;51.368;12.364;2023-03-11T03:01:37;18688.06;;;-141.84;86.25
15260;BME280;34462;51.368;12.364;2023-03-11T03:04:05;18667.75;;;-141.84;86.22
15260;BME280;34462;51.368;12.364;2023-03-11T03:06:33;18677.91;;;-141.84;85.87
15260;BME280;34462;51.368;12.364;2023-03-11T03:09:02;18690.09;;;-141.84;85.40
15260;BME280;34462;51.368;12.364;2023-03-11T03:11:30;18696.19;;;-141.84;85.15
15260;BME280;34462;51.368;12.364;2023-03-11T03:13:58;18665.72;;;-141.84;85.41
15260;BME280;34462;51.368;12.364;2023-03-11T03:16:26;18657.59;;;-141.84;85.20
15260;BME280;34462;51.368;12.364;2023-03-11T03:18:56;18679.94;;;-141.84;85.52
15260;BME280;34462;51.368;12.364;2023-03-11T03:21:24;18671.81;;;-141.84;84.90
15260;BME280;34462;51.368;12.364;2023-03-11T03:23:52;18655.56;;;-141.84;84.73
15260;BME280;34462;51.368;12.364;2023-03-11T03:26:21;18710.44;;;-141.84;84.69
15260;BME280;34462;51.368;12.364;2023-03-11T03:28:49;18675.88;;;-141.84;84.33
15260;BME280;34462;51.368;12.364;2023-03-11T03:31:17;18696.19;;;-141.84;84.38
15260;BME280;34462;51.368;12.364;2023-03-11T03:33:45;18671.81;;;-141.84;83.91
15260;BME280;34462;51.368;12.364;2023-03-11T03:36:15;18684.00;;;-141.84;84.03
15260;BME280;34462;51.368;12.364;2023-03-11T03:38:43;18675.88;;;-141.84;84.33
15260;BME280;34462;51.368;12.364;2023-03-11T03:41:13;18708.41;;;-141.84;84.28
15260;BME280;34462;51.368;12.364;2023-03-11T03:43:42;18708.41;;;-141.84;84.03
15260;BME280;34462;51.368;12.364;2023-03-11T03:46:10;18673.84;;;-141.84;84.15
15260;BME280;34462;51.368;12.364;2023-03-11T03:48:38;18698.22;;;-141.84;83.64
15260;BME280;34462;51.368;12.364;2023-03-11T03:51:09;18692.13;;;-141.84;83.61
15260;BME280;34462;51.368;12.364;2023-03-11T03:53:40;18688.06;;;-141.84;83.41
15260;BME280;34462;51.368;12.364;2023-03-11T03:56:12;18688.06;;;-141.84;83.75
15260;BME280;34462;51.368;12.364;2023-03-11T03:58:41;18669.78;;;-141.84;84.03
15260;BME280;34462;51.368;12.364;2023-03-11T04:01:11;18716.53;;;-141.84;83.38
15260;BME280;34462;51.368;12.364;2023-03-11T04:03:39;18718.56;;;-141.84;83.22
15260;BME280;34462;51.368;12.364;2023-03-11T04:06:11;18696.19;;;-141.84;83.54
15260;BME280;34462;51.368;12.364;2023-03-11T04:08:43;18684.00;;;-141.84;83.57
15260;BME280;34462;51.368;12.364;2023-03-11T04:11:12;18712.47;;;-141.84;83.80
15260;BME280;34462;51.368;12.364;2023-03-11T04:13:41;18716.53;;;-141.84;83.47
15260;BME280;34462;51.368;12.364;2023-03-11T04:16:16;18696.19;;;-141.84;83.45
15260;BME280;34462;51.368;12.364;2023-03-11T04:18:45;18726.69;;;-141.84;83.11
15260;BME280;34462;51.368;12.364;2023-03-11T04:21:14;18675.88;;;-141.84;83.57
15260;BME280;34462;51.368;12.364;2023-03-11T04:23:44;18679.94;;;-141.84;83.47
15260;BME280;34462;51.368;12.364;2023-03-11T04:26:12;18706.38;;;-141.84;83.59
15260;BME280;34462;51.368;12.364;2023-03-11T04:28:41;18704.31;;;-141.84;82.83
15260;BME280;34462;51.368;12.364;2023-03-11T04:31:09;18673.84;;;-141.84;82.80
15260;BME280;34462;51.368;12.364;2023-03-11T04:33:38;18684.00;;;-141.84;83.22
15260;BME280;34462;51.368;12.364;2023-03-11T04:36:08;18675.88;;;-141.84;83.47
15260;BME280;34462;51.368;12.364;2023-03-11T04:38:36;18665.72;;;-141.84;82.96
15260;BME280;34462;51.368;12.364;2023-03-11T04:41:06;18714.50;;;-141.84;82.51
15260;BME280;34462;51.368;12.364;2023-03-11T04:43:35;18690.09;;;-141.84;81.75
15260;BME280;34462;51.368;12.364;2023-03-11T04:46:03;18696.19;;;-141.84;81.54
15260;BME280;34462;51.368;12.364;2023-03-11T04:48:31;18714.50;;;-141.84;81.51
15260;BME280;34462;51.368;12.364;2023-03-11T04:51:00;18720.59;;;-141.84;81.78
15260;BME280;34462;51.368;12.364;2023-03-11T04:53:28;18679.94;;;-141.84;82.36
15260;BME280;34462;51.368;12.364;2023-03-11T04:55:56;18692.13;;;-141.84;82.81
15260;BME280;34462;51.368;12.364;2023-03-11T04:58:25;18706.38;;;-141.84;82.45
15260;BME280;34462;51.368;12.364;2023-03-11T05:00:53;18738.88;;;-141.84;82.12
15260;BME280;34462;51.368;12.364;2023-03-11T05:03:22;18736.84;;;-141.84;80.64
15260;BME280;34462;51.368;12.364;2023-03-11T05:05:50;18712.47;;;-141.84;80.62
15260;BME280;34462;51.368;12.364;2023-03-11T05:08:23;18704.31;;;-141.84;80.46
15260;BME280;34462;51.368;12.364;2023-03-11T05:10:52;18710.44;;;-141.84;80.53
15260;BME280;34462;51.368;12.364;2023-03-11T05:13:20;18686.03;;;-141.84;80.39
15260;BME280;34462;51.368;12.364;2023-03-11T05:15:50;18684.00;;;-141.84;80.22
15260;BME280;34462;51.368;12.364;2023-03-11T05:18:19;18702.28;;;-141.84;79.93
15260;BME280;34462;51.368;12.364;2023-03-11T05:20:47;18708.41;;;-141.84;80.12
15260;BME280;34462;51.368;12.364;2023-03-11T05:23:15;18712.47;;;-141.84;80.16
15260;BME280;34462;51.368;12.364;2023-03-11T05:25:44;18724.66;;;-141.84;79.42
15260;BME280;34462;51.368;12.364;2023-03-11T05:28:12;18702.28;;;-141.84;79.32
15260;BME280;34462;51.368;12.364;2023-03-11T05:30:40;18712.47;;;-141.84;79.66
15260;BME280;34462;51.368;12.364;2023-03-11T05:33:10;18732.78;;;-141.84;79.53
15260;BME280;34462;51.368;12.364;2023-03-11T05:35:38;18738.88;;;-141.84;79.49
15260;BME280;34462;51.368;12.364;2023-03-11T05:38:06;18726.69;;;-141.84;79.01
15260;BME280;34462;51.368;12.364;2023-03-11T05:40:34;18728.72;;;-141.84;78.91
15260;BME280;34462;51.368;12.364;2023-03-11T05:43:02;18724.66;;;-141.84;79.53
15260;BME280;34462;51.368;12.364;2023-03-11T05:45:31;18759.19;;;-141.84;79.29
15260;BME280;34462;51.368;12.364;2023-03-11T05:47:59;18732.78;;;-141.84;78.91
15260;BME280;34462;51.368;12.364;2023-03-11T05:50:28;18765.28;;;-141.84;78.71
15260;BME280;34462;51.368;12.364;2023-03-11T05:52:57;18749.03;;;-141.84;79.10
15260;BME280;34462;51.368;12.364;2023-03-11T05:55:25;18716.53;;;-141.84;79.33
15260;BME280;34462;51.368;12.364;2023-03-11T05:57:53;18740.91;;;-141.84;78.59
15260;BME280;34462;51.368;12.364;2023-03-11T06:00:22;18747.00;;;-141.84;78.18
15260;BME280;34462;51.368;12.364;2023-03-11T06:02:50;18761.22;;;-141.84;78.67
15260;BME280;34462;51.368;12.364;2023-03-11T06:05:18;18744.97;;;-141.84;78.48
15260;BME280;34462;51.368;12.364;2023-03-11T06:07:47;18724.66;;;-141.84;78.23
15260;BME280;34462;51.368;12.364;2023-03-11T06:10:16;18706.38;;;-141.84;77.75
15260;BME280;34462;51.368;12.364;2023-03-11T06:12:44;18738.88;;;-141.84;77.03
15260;BME280;34462;51.368;12.364;2023-03-11T06:15:13;18761.22;;;-141.84;77.38
15260;BME280;34462;51.368;12.364;2023-03-11T06:17:41;18779.50;;;-141.84;76.58
15260;BME280;34462;51.368;12.364;2023-03-11T06:20:11;18753.09;;;-141.84;76.71
15260;BME280;34462;51.368;12.364;2023-03-11T06:22:39;18740.91;;;-141.84;76.11
15260;BME280;34462;51.368;12.364;2023-03-11T06:25:09;18753.09;;;-141.84;76.84
15260;BME280;34462;51.368;12.364;2023-03-11T06:27:38;18765.28;;;-141.84;76.74
15260;BME280;34462;51.368;12.364;2023-03-11T06:30:08;18714.50;;;-141.84;76.90
15260;BME280;34462;51.368;12.364;2023-03-11T06:32:37;18763.25;;;-141.84;76.49
15260;BME280;34462;51.368;12.364;2023-03-11T06:35:06;18777.47;;;-141.84;76.72
15260;BME280;34462;51.368;12.364;2023-03-11T06:37:35;18734.81;;;-141.84;77.02
15260;BME280;34462;51.368;12.364;2023-03-11T06:40:05;18779.50;;;-141.84;76.91
15260;BME280;34462;51.368;12.364;2023-03-11T06:42:36;18757.16;;;-141.84;75.41
15260;BME280;34462;51.368;12.364;2023-03-11T06:45:06;18767.31;;;-141.84;75.24
15260;BME280;34462;51.368;12.364;2023-03-11T06:47:34;18779.50;;;-141.84;76.04
15260;BME280;34462;51.368;12.364;2023-03-11T06:50:03;18761.22;;;-141.84;76.08
15260;BME280;34462;51.368;12.364;2023-03-11T06:52:33;18791.69;;;-141.84;75.74
15260;BME280;34462;51.368;12.364;2023-03-11T06:55:01;18805.91;;;-141.84;75.22
15260;BME280;34462;51.368;12.364;2023-03-11T06:57:30;18797.78;;;-141.84;75.52
15260;BME280;34462;51.368;12.364;2023-03-11T06:59:59;18771.38;;;-141.84;75.99
15260;BME280;34462;51.368;12.364;2023-03-11T07:02:27;18777.47;;;-141.84;75.66
15260;BME280;34462;51.368;12.364;2023-03-11T07:04:56;18797.78;;;-141.84;75.09
15260;BME280;34462;51.368;12.364;2023-03-11T07:07:24;18793.72;;;-141.84;74.65
15260;BME280;34462;51.368;12.364;2023-03-11T07:09:54;18791.69;;;-141.84;75.63
15260;BME280;34462;51.368;12.364;2023-03-11T07:12:24;18801.84;;;-141.84;75.31
15260;BME280;34462;51.368;12.364;2023-03-11T07:14:54;18785.59;;;-141.84;75.41
15260;BME280;34462;51.368;12.364;2023-03-11T07:17:25;18795.75;;;-141.84;75.75
15260;BME280;34462;51.368;12.364;2023-03-11T07:19:53;18775.44;;;-141.84;74.40
15260;BME280;34462;51.368;12.364;2023-03-11T07:22:22;18807.94;;;-141.84;73.49
15260;BME280;34462;51.368;12.364;2023-03-11T07:24:51;18805.91;;;-141.84;73.80
15260;BME280;34462;51.368;12.364;2023-03-11T07:27:20;18842.50;;;-141.84;72.91
15260;BME280;34462;51.368;12.364;2023-03-11T07:29:49;18793.72;;;-141.84;73.36
15260;BME280;34462;51.368;12.364;2023-03-11T07:32:17;18816.06;;;-141.84;72.50
15260;BME280;34462;51.368;12.364;2023-03-11T07:34:46;18842.50;;;-141.84;72.76
15260;BME280;34462;51.368;12.364;2023-03-11T07:37:14;18822.19;;;-141.84;72.26
15260;BME280;34462;51.368;12.364;2023-03-11T07:39:43;18814.03;;;-141.84;72.31
15260;BME280;34462;51.368;12.364;2023-03-11T07:42:11;18830.31;;;-141.84;72.78
15260;BME280;34462;51.368;12.364;2023-03-11T07:44:39;18830.31;;;-141.84;73.45
15260;BME280;34462;51.368;12.364;2023-03-11T07:47:08;18822.19;;;-141.84;73.74
15260;BME280;34462;51.368;12.364;2023-03-11T07:49:36;18785.59;;;-141.84;74.44
15260;BME280;34462;51.368;12.364;2023-03-11T07:52:06;18846.56;;;-141.84;72.69
15260;BME280;34462;51.368;12.364;2023-03-11T07:54:34;18846.56;;;-141.84;72.31
15260;BME280;34462;51.368;12.364;2023-03-11T07:57:02;18834.38;;;-141.84;72.27
15260;BME280;34462;51.368;12.364;2023-03-11T07:59:31;18830.31;;;-141.84;72.83
15260;BME280;34462;51.368;12.364;2023-03-11T08:01:59;18856.72;;;-141.84;72.65
15260;BME280;34462;51.368;12.364;2023-03-11T08:04:29;18872.97;;;-141.84;71.95
15260;BME280;34462;51.368;12.364;2023-03-11T08:06:57;18816.06;;;-141.84;72.15
15260;BME280;34462;51.368;12.364;2023-03-11T08:09:27;18868.91;;;-141.84;71.46
15260;BME280;34462;51.368;12.364;2023-03-11T08:11:55;18866.88;;;-141.84;70.78
15260;BME280;34462;51.368;12.364;2023-03-11T08:14:23;18883.13;;;-141.84;70.88
15260;BME280;34462;51.368;12.364;2023-03-11T08:16:51;18864.84;;;-141.84;69.96
15260;BME280;34462;51.368;12.364;2023-03-11T08:19:20;18868.91;;;-141.84;69.94
15260;BME280;34462;51.368;12.364;2023-03-11T08:21:48;18858.75;;;-141.84;70.21
15260;BME280;34462;51.368;12.364;2023-03-11T08:24:16;18875.00;;;-141.84;70.81
15260;BME280;34462;51.368;12.364;2023-03-11T08:26:45;18885.16;;;-141.84;70.06
15260;BME280;34462;51.368;12.364;2023-03-11T08:29:13;18846.56;;;-141.84;70.75
15260;BME280;34462;51.368;12.364;2023-03-11T08:31:42;18854.69;;;-141.84;71.72
15260;BME280;34462;51.368;12.364;2023-03-11T08:34:11;18897.34;;;-141.84;71.32
15260;BME280;34462;51.368;12.364;2023-03-11T08:36:39;18875.00;;;-141.84;70.66
15260;BME280;34462;51.368;12.364;2023-03-11T08:39:08;18877.03;;;-141.84;70.15
15260;BME280;34462;51.368;12.364;2023-03-11T08:41:36;18885.16;;;-141.84;69.41
15260;BME280;34462;51.368;12.364;2023-03-11T08:44:05;18864.84;;;-141.84;70.58
15260;BME280;34462;51.368;12.364;2023-03-11T08:46:36;18866.88;;;-141.84;70.25
15260;BME280;34462;51.368;12.364;2023-03-11T08:49:06;18879.06;;;-141.84;69.76
15260;BME280;34462;51.368;12.364;2023-03-11T08:51:34;18885.16;;;-141.84;69.71
15260;BME280;34462;51.368;12.364;2023-03-11T08:54:03;18885.16;;;-141.84;69.97
15260;BME280;34462;51.368;12.364;2023-03-11T08:56:32;18899.38;;;-141.84;68.83
15260;BME280;34462;51.368;12.364;2023-03-11T08:59:01;18903.44;;;-141.84;69.04
15260;BME280;34462;51.368;12.364;2023-03-11T09:01:30;18919.69;;;-141.84;68.69
15260;BME280;34462;51.368;12.364;2023-03-11T09:03:58;18901.41;;;-141.84;67.95
15260;BME280;34462;51.368;12.364;2023-03-11T09:06:26;18907.50;;;-141.84;68.34
15260;BME280;34462;51.368;12.364;2023-03-11T09:08:56;18883.13;;;-141.84;68.42
15260;BME280;34462;51.368;12.364;2023-03-11T09:11:25;18903.44;;;-141.84;68.62
15260;BME280;34462;51.368;12.364;2023-03-11T09:13:53;18917.66;;;-141.84;67.26
15260;BME280;34462;51.368;12.364;2023-03-11T09:16:22;18923.78;;;-141.84;66.00
15260;BME280;34462;51.368;12.364;2023-03-11T09:18:52;18923.78;;;-141.84;66.18
15260;BME280;34462;51.368;12.364;2023-03-11T09:21:20;18960.34;;;-141.84;65.86
15260;BME280;34462;51.368;12.364;2023-03-11T09:23:48;18968.47;;;-141.84;66.34
15260;BME280;34462;51.368;12.364;2023-03-11T09:26:17;18946.13;;;-141.84;64.97
15260;BME280;34462;51.368;12.364;2023-03-11T09:28:45;18925.81;;;-141.84;65.16
15260;BME280;34462;51.368;12.364;2023-03-11T09:31:15;18974.56;;;-141.84;66.05
15260;BME280;34462;51.368;12.364;2023-03-11T09:33:45;19021.31;;;-141.84;64.80
15260;BME280;34462;51.368;12.364;2023-03-11T09:36:19;19015.19;;;-141.84;63.46
15260;BME280;34462;51.368;12.364;2023-03-11T09:38:48;18968.47;;;-141.84;63.24
15260;BME280;34462;51.368;12.364;2023-03-11T09:41:33;18988.78;;;-141.84;62.98
15260;BME280;34462;51.368;12.364;2023-03-11T09:44:34;18990.81;;;-141.84;63.39
15260;BME280;34462;51.368;12.364;2023-03-11T09:47:26;18990.81;;;-141.84;64.48
15260;BME280;34462;51.368;12.364;2023-03-11T09:50:21;18984.72;;;-141.84;64.85
15260;BME280;34462;51.368;12.364;2023-03-11T09:53:09;19015.19;;;-141.84;63.88
15260;BME280;34462;51.368;12.364;2023-03-11T09:55:44;19023.34;;;-141.84;63.54
15260;BME280;34462;51.368;12.364;2023-03-11T09:58:20;19017.25;;;-141.84;64.74
15260;BME280;34462;51.368;12.364;2023-03-11T10:00:49;18980.66;;;-141.84;64.13
15260;BME280;34462;51.368;12.364;2023-03-11T10:03:30;19013.16;;;-141.84;62.71
15260;BME280;34462;51.368;12.364;2023-03-11T10:06:13;19041.63;;;-141.84;61.90
15260;BME280;34462;51.368;12.364;2023-03-11T10:08:48;19033.50;;;-141.84;61.76
15260;BME280;34462;51.368;12.364;2023-03-11T10:14:34;19055.84;;;-141.84;62.07
15260;BME280;34462;51.368;12.364;2023-03-11T10:17:21;19029.44;;;-141.84;61.67
15260;BME280;34462;51.368;12.364;2023-03-11T10:20:02;18990.81;;;-141.84;61.98
15260;BME280;34462;51.368;12.364;2023-03-11T10:22:44;19055.84;;;-141.84;61.75
15260;BME280;34462;51.368;12.364;2023-03-11T10:25:24;19078.19;;;-141.84;60.49
15260;BME280;34462;51.368;12.364;2023-03-11T10:28:00;19104.59;;;-141.84;60.89
15260;BME280;34462;51.368;12.364;2023-03-11T10:30:33;19035.53;;;-141.84;61.53
15260;BME280;34462;51.368;12.364;2023-03-11T10:33:13;19037.56;;;-141.84;61.93
15260;BME280;34462;51.368;12.364;2023-03-11T10:35:50;19025.38;;;-141.84;62.26
15260;BME280;34462;51.368;12.364;2023-03-11T10:38:23;19005.03;;;-141.84;64.00
15260;BME280;34462;51.368;12.364;2023-03-11T10:40:58;18966.44;;;-141.84;64.55
15260;BME280;34462;51.368;12.364;2023-03-11T10:43:34;18962.38;;;-141.84;63.64
15260;BME280;34462;51.368;12.364;2023-03-11T10:46:09;18956.28;;;-141.84;63.57
15260;BME280;34462;51.368;12.364;2023-03-11T10:48:41;19035.53;;;-141.84;62.84
15260;BME280;34462;51.368;12.364;2023-03-11T10:51:15;19025.38;;;-141.84;62.46
15260;BME280;34462;51.368;12.364;2023-03-11T10:53:51;19043.66;;;-141.84;61.95
15260;BME280;34462;51.368;12.364;2023-03-11T10:56:31;19037.56;;;-141.84;59.58
15260;BME280;34462;51.368;12.364;2023-03-11T10:59:02;19045.69;;;-141.84;60.73
15260;BME280;34462;51.368;12.364;2023-03-11T11:01:31;19086.31;;;-141.84;60.47
15260;BME280;34462;51.368;12.364;2023-03-11T11:04:01;19068.03;;;-141.84;61.44
15260;BME280;34462;51.368;12.364;2023-03-11T11:06:32;19045.69;;;-141.84;61.35
15260;BME280;34462;51.368;12.364;2023-03-11T11:09:14;19043.66;;;-141.84;61.86
15260;BME280;34462;51.368;12.364;2023-03-11T11:12:01;19106.66;;;-141.84;59.82
15260;BME280;34462;51.368;12.364;2023-03-11T11:14:45;19114.78;;;-141.84;59.92
15260;BME280;34462;51.368;12.364;2023-03-11T11:17:22;19082.25;;;-141.84;59.93
15260;BME280;34462;51.368;12.364;2023-03-11T11:19:52;19059.91;;;-141.84;60.68
15260;BME280;34462;51.368;12.364;2023-03-11T11:22:24;19043.66;;;-141.84;62.03
15260;BME280;34462;51.368;12.364;2023-03-11T11:24:55;19013.16;;;-141.84;61.77
15260;BME280;34462;51.368;12.364;2023-03-11T11:27:27;19045.69;;;-141.84;61.11
15260;BME280;34462;51.368;12.364;2023-03-11T11:30:14;19017.25;;;-141.84;61.82
15260;BME280;34462;51.368;12.364;2023-03-11T11:32:43;19033.50;;;-141.84;62.85
15260;BME280;34462;51.368;12.364;2023-03-11T11:35:14;19031.47;;;-141.84;62.51
15260;BME280;34462;51.368;12.364;2023-03-11T11:37:46;19039.59;;;-141.84;62.02
15260;BME280;34462;51.368;12.364;2023-03-11T11:40:27;19102.56;;;-141.84;59.86
15260;BME280;34462;51.368;12.364;2023-03-11T11:43:02;19106.66;;;-141.84;59.12
15260;BME280;34462;51.368;12.364;2023-03-11T11:45:37;19106.66;;;-141.84;58.93
15260;BME280;34462;51.368;12.364;2023-03-11T11:48:17;19049.75;;;-141.84;59.53
15260;BME280;34462;51.368;12.364;2023-03-11T11:50:51;19122.91;;;-141.84;58.51
15260;BME280;34462;51.368;12.364;2023-03-11T11:53:28;19043.66;;;-141.84;59.52
15260;BME280;34462;51.368;12.364;2023-03-11T11:56:00;19072.09;;;-141.84;60.37
15260;BME280;34462;51.368;12.364;2023-03-11T11:58:30;19082.25;;;-141.84;61.40
15260;BME280;34462;51.368;12.364;2023-03-11T12:01:13;19088.34;;;-141.84;60.78
15260;BME280;34462;51.368;12.364;2023-03-11T12:04:19;19090.38;;;-141.84;60.46
15260;BME280;34462;51.368;12.364;2023-03-11T12:07:09;19088.34;;;-141.84;58.39
15260;BME280;34462;51.368;12.364;2023-03-11T12:09:51;19124.94;;;-141.84;57.88
15260;BME280;34462;51.368;12.364;2023-03-11T12:12:31;19185.88;;;-141.84;56.82
15260;BME280;34462;51.368;12.364;2023-03-11T12:15:09;19141.19;;;-141.84;57.03
15260;BME280;34462;51.368;12.364;2023-03-11T12:17:43;19183.84;;;-141.84;56.65
15260;BME280;34462;51.368;12.364;2023-03-11T12:20:29;19171.66;;;-141.84;56.02
15260;BME280;34462;51.368;12.364;2023-03-11T12:23:19;19163.53;;;-141.84;56.20
15260;BME280;34462;51.368;12.364;2023-03-11T12:26:13;19126.97;;;-141.84;57.03
15260;BME280;34462;51.368;12.364;2023-03-11T12:28:47;19122.91;;;-141.84;58.27
15260;BME280;34462;51.368;12.364;2023-03-11T12:31:22;19106.66;;;-141.84;58.09
15260;BME280;34462;51.368;12.364;2023-03-11T12:33:57;19163.53;;;-141.84;57.98
15260;BME280;34462;51.368;12.364;2023-03-11T12:36:31;19139.16;;;-141.84;58.34
15260;BME280;34462;51.368;12.364;2023-03-11T12:39:03;19163.53;;;-141.84;57.81
15260;BME280;34462;51.368;12.364;2023-03-11T12:41:35;19129.00;;;-141.84;57.50
15260;BME280;34462;51.368;12.364;2023-03-11T12:44:23;19161.50;;;-141.84;56.41
15260;BME280;34462;51.368;12.364;2023-03-11T12:47:24;19147.28;;;-141.84;55.68
15260;BME280;34462;51.368;12.364;2023-03-11T12:53:01;19159.47;;;-141.84;56.37
15260;BME280;34462;51.368;12.364;2023-03-11T12:55:34;19112.75;;;-141.84;57.23
15260;BME280;34462;51.368;12.364;2023-03-11T12:58:42;19135.09;;;-141.84;57.94